sensor_id;sensor_type;location;lat;lon;timestamp;temperature;humidity
17252;DHT22;8742;51.716;8.790;2023-02-11T00:00:54;6.70;99.90
17252;DHT22;8742;51.716;8.790;2023-02-11T00:03:22;6.70;99.90
17252;DHT22;8742;51.716;8.790;2023-02-11T00:05:56;6.80;99.90
17252;DHT22;8742;51.716;8.790;2023-02-11T00:08:24;6.80;99.90
17252;DHT22;8742;51.716;8.790;2023-02-11T00:10:51;6.80;99.90
17252;DHT22;8742;51.716;8.790;2023-02-11T00:13:18;6.80;99.90
17252;DHT22;8742;51.716;8.790;2023-02-11T00:15:45;6.80;99.90
17252;DHT22;8742;51.716;8.790;2023-02-11T00:18:11;6.70;99.90
17252;DHT22;8742;51.716;8.790;2023-02-11T00:20:40;6.70;99.90
17252;DHT22;8742;51.716;8.790;2023-02-11T00:23:07;6.60;99.90
17252;DHT22;8742;51.716;8.790;2023-02-11T00:25:38;6.60;99.90
17252;DHT22;8742;51.716;8.790;2023-02-11T00:28:05;6.60;99.90
17252;DHT22;8742;51.716;8.790;2023-02-11T00:30:32;6.60;99.90
17252;DHT22;8742;51.716;8.790;2023-02-11T00:32:59;6.50;99.90
17252;DHT22;8742;51.716;8.790;2023-02-11T00:35:25;6.50;99.90
17252;DHT22;8742;51.716;8.790;2023-02-11T00:37:54;6.50;99.90
17252;DHT22;8742;51.716;8.790;2023-02-11T00:40:21;6.50;99.90
17252;DHT22;8742;51.716;8.790;2023-02-11T00:42:48;6.50;99.90
17252;DHT22;8742;51.716;8.790;2023-02-11T00:45:15;6.60;99.90
17252;DHT22;8742;51.716;8.790;2023-02-11T00:47:41;6.60;99.90
17252;DHT22;8742;51.716;8.790;2023-02-11T00:50:08;6.60;99.90
17252;DHT22;8742;51.716;8.790;2023-02-11T00:52:35;6.60;99.90
17252;DHT22;8742;51.716;8.790;2023-02-11T00:55:04;6.60;99.90
17252;DHT22;8742;51.716;8.790;2023-02-11T00:57:31;6.60;99.90
17252;DHT22;8742;51.716;8.790;2023-02-11T00:59:57;6.60;99.90
17252;DHT22;8742;51.716;8.790;2023-02-11T01:02:24;6.60;99.90
17252;DHT22;8742;51.716;8.790;2023-02-11T01:04:51;6.60;99.90
17252;DHT22;8742;51.716;8.790;2023-02-11T01:07:18;6.50;99.90
17252;DHT22;8742;51.716;8.790;2023-02-11T01:09:45;6.50;99.90
17252;DHT22;8742;51.716;8.790;2023-02-11T01:12:13;6.40;99.90
17252;DHT22;8742;51.716;8.790;2023-02-11T01:14:40;6.40;99.90
17252;DHT22;8742;51.716;8.790;2023-02-11T01:17:07;6.30;99.90
17252;DHT22;8742;51.716;8.790;2023-02-11T01:19:35;6.30;99.90
17252;DHT22;8742;51.716;8.790;2023-02-11T01:22:02;6.20;99.90
17252;DHT22;8742;51.716;8.790;2023-02-11T01:24:29;6.20;99.90
17252;DHT22;8742;51.716;8.790;2023-02-11T01:26:56;6.20;99.90
17252;DHT22;8742;51.716;8.790;2023-02-11T01:29:24;6.10;99.90
17252;DHT22;8742;51.716;8.790;2023-02-11T01:31:51;6.10;99.90
17252;DHT22;8742;51.716;8.790;2023-02-11T01:34:18;6.10;99.90
17252;DHT22;8742;51.716;8.790;2023-02-11T01:36:44;6.00;99.90
17252;DHT22;8742;51.716;8.790;2023-02-11T01:39:11;6.00;99.90
17252;DHT22;8742;51.716;8.790;2023-02-11T01:41:38;6.00;99.90
17252;DHT22;8742;51.716;8.790;2023-02-11T01:44:27;6.00;99.90
17252;DHT22;8742;51.716;8.790;2023-02-11T01:46:54;6.00;99.90
17252;DHT22;8742;51.716;8.790;2023-02-11T01:49:24;6.00;99.90
17252;DHT22;8742;51.716;8.790;2023-02-11T01:51:55;6.00;99.90
17252;DHT22;8742;51.716;8.790;2023-02-11T01:54:26;6.00;99.90
17252;DHT22;8742;51.716;8.790;2023-02-11T01:57:14;6.00;99.90
17252;DHT22;8742;51.716;8.790;2023-02-11T01:59:54;5.90;99.90
17252;DHT22;8742;51.716;8.790;2023-02-11T02:02:25;5.90;99.90
17252;DHT22;8742;51.716;8.790;2023-02-11T02:04:59;5.90;99.90
17252;DHT22;8742;51.716;8.790;2023-02-11T02:07:32;5.90;99.90
17252;DHT22;8742;51.716;8.790;2023-02-11T02:10:03;5.90;99.90
17252;DHT22;8742;51.716;8.790;2023-02-11T02:12:31;5.80;99.90
17252;DHT22;8742;51.716;8.790;2023-02-11T02:15:22;5.80;99.90
17252;DHT22;8742;51.716;8.790;2023-02-11T02:18:02;5.80;99.90
17252;DHT22;8742;51.716;8.790;2023-02-11T02:21:08;5.80;99.90
17252;DHT22;8742;51.716;8.790;2023-02-11T02:24:01;5.80;99.90
17252;DHT22;8742;51.716;8.790;2023-02-11T02:29:54;5.70;99.90
17252;DHT22;8742;51.716;8.790;2023-02-11T02:33:02;5.70;99.90
17252;DHT22;8742;51.716;8.790;2023-02-11T02:35:38;5.70;99.90
17252;DHT22;8742;51.716;8.790;2023-02-11T02:38:10;5.70;99.90
17252;DHT22;8742;51.716;8.790;2023-02-11T02:40:42;5.60;99.90
17252;DHT22;8742;51.716;8.790;2023-02-11T02:43:12;5.60;99.90
17252;DHT22;8742;51.716;8.790;2023-02-11T02:45:39;5.60;99.90
17252;DHT22;8742;51.716;8.790;2023-02-11T02:48:23;5.60;99.90
17252;DHT22;8742;51.716;8.790;2023-02-11T02:50:54;5.60;99.90
17252;DHT22;8742;51.716;8.790;2023-02-11T02:53:29;5.60;99.90
17252;DHT22;8742;51.716;8.790;2023-02-11T02:56:02;5.60;99.90
17252;DHT22;8742;51.716;8.790;2023-02-11T03:01:34;5.60;99.90
17252;DHT22;8742;51.716;8.790;2023-02-11T03:04:12;5.60;99.90
17252;DHT22;8742;51.716;8.790;2023-02-11T03:06:48;5.60;99.90
17252;DHT22;8742;51.716;8.790;2023-02-11T03:09:22;5.60;99.90
17252;DHT22;8742;51.716;8.790;2023-02-11T03:11:51;5.60;99.90
17252;DHT22;8742;51.716;8.790;2023-02-11T03:14:19;5.60;99.90
17252;DHT22;8742;51.716;8.790;2023-02-11T03:16:48;5.60;99.90
17252;DHT22;8742;51.716;8.790;2023-02-11T03:19:19;5.60;99.90
17252;DHT22;8742;51.716;8.790;2023-02-11T03:21:48;5.50;99.90
17252;DHT22;8742;51.716;8.790;2023-02-11T03:24:20;5.60;99.90
17252;DHT22;8742;51.716;8.790;2023-02-11T03:26:50;5.60;99.90
17252;DHT22;8742;51.716;8.790;2023-02-11T03:29:28;5.60;99.90
17252;DHT22;8742;51.716;8.790;2023-02-11T03:32:01;5.60;99.90
17252;DHT22;8742;51.716;8.790;2023-02-11T03:34:35;5.60;99.90
17252;DHT22;8742;51.716;8.790;2023-02-11T03:37:07;5.60;99.90
17252;DHT22;8742;51.716;8.790;2023-02-11T03:39:38;5.60;99.90
17252;DHT22;8742;51.716;8.790;2023-02-11T03:42:07;5.60;99.90
17252;DHT22;8742;51.716;8.790;2023-02-11T03:44:40;5.60;99.90
17252;DHT22;8742;51.716;8.790;2023-02-11T03:47:09;5.60;99.90
17252;DHT22;8742;51.716;8.790;2023-02-11T03:49:40;5.50;99.90
17252;DHT22;8742;51.716;8.790;2023-02-11T03:52:08;5.50;99.90
17252;DHT22;8742;51.716;8.790;2023-02-11T03:54:38;5.60;99.90
17252;DHT22;8742;51.716;8.790;2023-02-11T03:57:07;5.50;99.90
17252;DHT22;8742;51.716;8.790;2023-02-11T03:59:49;5.50;99.90
17252;DHT22;8742;51.716;8.790;2023-02-11T04:02:16;5.50;99.90
17252;DHT22;8742;51.716;8.790;2023-02-11T04:04:44;5.60;99.90
17252;DHT22;8742;51.716;8.790;2023-02-11T04:07:12;5.60;99.90
17252;DHT22;8742;51.716;8.790;2023-02-11T04:09:39;5.60;99.90
17252;DHT22;8742;51.716;8.790;2023-02-11T04:12:06;5.60;99.90
17252;DHT22;8742;51.716;8.790;2023-02-11T04:14:33;5.60;99.90
17252;DHT22;8742;51.716;8.790;2023-02-11T04:17:00;5.60;99.90
17252;DHT22;8742;51.716;8.790;2023-02-11T04:19:27;5.60;99.90
17252;DHT22;8742;51.716;8.790;2023-02-11T04:21:56;5.60;99.90
17252;DHT22;8742;51.716;8.790;2023-02-11T04:24:23;5.60;99.90
17252;DHT22;8742;51.716;8.790;2023-02-11T04:26:49;5.60;99.90
17252;DHT22;8742;51.716;8.790;2023-02-11T04:29:17;5.60;99.90
17252;DHT22;8742;51.716;8.790;2023-02-11T04:31:44;5.60;99.90
17252;DHT22;8742;51.716;8.790;2023-02-11T04:34:10;5.60;99.90
17252;DHT22;8742;51.716;8.790;2023-02-11T04:36:37;5.60;99.90
17252;DHT22;8742;51.716;8.790;2023-02-11T04:39:06;5.60;99.90
17252;DHT22;8742;51.716;8.790;2023-02-11T04:41:33;5.70;99.90
17252;DHT22;8742;51.716;8.790;2023-02-11T04:44:00;5.70;99.90
17252;DHT22;8742;51.716;8.790;2023-02-11T04:46:26;5.70;99.90
17252;DHT22;8742;51.716;8.790;2023-02-11T04:48:53;5.70;99.90
17252;DHT22;8742;51.716;8.790;2023-02-11T04:51:20;5.70;99.90
17252;DHT22;8742;51.716;8.790;2023-02-11T04:53:47;5.70;99.90
17252;DHT22;8742;51.716;8.790;2023-02-11T04:56:15;5.70;99.90
17252;DHT22;8742;51.716;8.790;2023-02-11T04:58:42;5.70;99.90
17252;DHT22;8742;51.716;8.790;2023-02-11T05:01:10;5.70;99.90
17252;DHT22;8742;51.716;8.790;2023-02-11T05:03:37;5.70;99.90
17252;DHT22;8742;51.716;8.790;2023-02-11T05:06:04;5.70;99.90
17252;DHT22;8742;51.716;8.790;2023-02-11T05:08:32;5.70;99.90
17252;DHT22;8742;51.716;8.790;2023-02-11T05:10:59;5.70;99.90
17252;DHT22;8742;51.716;8.790;2023-02-11T05:13:28;5.70;99.90
17252;DHT22;8742;51.716;8.790;2023-02-11T05:15:55;5.70;99.90
17252;DHT22;8742;51.716;8.790;2023-02-11T05:18:22;5.70;99.90
17252;DHT22;8742;51.716;8.790;2023-02-11T05:20:49;5.80;99.90
17252;DHT22;8742;51.716;8.790;2023-02-11T05:23:15;5.80;99.90
17252;DHT22;8742;51.716;8.790;2023-02-11T05:25:42;5.80;99.90
17252;DHT22;8742;51.716;8.790;2023-02-11T05:28:09;5.80;99.90
17252;DHT22;8742;51.716;8.790;2023-02-11T05:30:37;5.80;99.90
17252;DHT22;8742;51.716;8.790;2023-02-11T05:33:04;5.80;99.90
17252;DHT22;8742;51.716;8.790;2023-02-11T05:35:31;5.90;99.90
17252;DHT22;8742;51.716;8.790;2023-02-11T05:37:58;5.90;99.90
17252;DHT22;8742;51.716;8.790;2023-02-11T05:40:24;5.90;99.90
17252;DHT22;8742;51.716;8.790;2023-02-11T05:42:51;5.90;99.90
17252;DHT22;8742;51.716;8.790;2023-02-11T05:45:18;5.90;99.90
17252;DHT22;8742;51.716;8.790;2023-02-11T05:47:46;5.90;99.90
17252;DHT22;8742;51.716;8.790;2023-02-11T05:50:13;5.90;99.90
17252;DHT22;8742;51.716;8.790;2023-02-11T05:52:40;5.90;99.90
17252;DHT22;8742;51.716;8.790;2023-02-11T05:55:07;5.90;99.90
17252;DHT22;8742;51.716;8.790;2023-02-11T05:57:33;5.90;99.90
17252;DHT22;8742;51.716;8.790;2023-02-11T06:00:00;5.90;99.90
17252;DHT22;8742;51.716;8.790;2023-02-11T06:02:27;5.90;99.90
17252;DHT22;8742;51.716;8.790;2023-02-11T06:04:55;5.90;99.90
17252;DHT22;8742;51.716;8.790;2023-02-11T06:07:22;5.90;99.90
17252;DHT22;8742;51.716;8.790;2023-02-11T06:09:49;5.90;99.90
17252;DHT22;8742;51.716;8.790;2023-02-11T06:12:16;5.90;99.90
17252;DHT22;8742;51.716;8.790;2023-02-11T06:14:43;5.90;99.90
17252;DHT22;8742;51.716;8.790;2023-02-11T06:17:10;5.90;99.90
17252;DHT22;8742;51.716;8.790;2023-02-11T06:19:37;5.90;99.90
17252;DHT22;8742;51.716;8.790;2023-02-11T06:22:05;5.90;99.90
17252;DHT22;8742;51.716;8.790;2023-02-11T06:24:32;5.90;99.90
17252;DHT22;8742;51.716;8.790;2023-02-11T06:26:58;5.90;99.90
17252;DHT22;8742;51.716;8.790;2023-02-11T06:29:25;5.90;99.90
17252;DHT22;8742;51.716;8.790;2023-02-11T06:31:52;5.90;99.90
17252;DHT22;8742;51.716;8.790;2023-02-11T06:34:19;5.90;99.90
17252;DHT22;8742;51.716;8.790;2023-02-11T06:36:45;5.90;99.90
17252;DHT22;8742;51.716;8.790;2023-02-11T06:39:14;5.90;99.90
17252;DHT22;8742;51.716;8.790;2023-02-11T06:41:40;5.90;99.90
17252;DHT22;8742;51.716;8.790;2023-02-11T06:44:07;5.90;99.90
17252;DHT22;8742;51.716;8.790;2023-02-11T06:46:34;5.90;99.90
17252;DHT22;8742;51.716;8.790;2023-02-11T06:49:01;5.90;99.90
17252;DHT22;8742;51.716;8.790;2023-02-11T06:51:28;5.90;99.90
17252;DHT22;8742;51.716;8.790;2023-02-11T06:53:54;5.90;99.90
17252;DHT22;8742;51.716;8.790;2023-02-11T06:56:23;5.90;99.90
17252;DHT22;8742;51.716;8.790;2023-02-11T06:58:52;5.90;99.90
17252;DHT22;8742;51.716;8.790;2023-02-11T07:01:20;5.90;99.90
17252;DHT22;8742;51.716;8.790;2023-02-11T07:03:48;5.90;99.90
17252;DHT22;8742;51.716;8.790;2023-02-11T07:06:17;5.90;99.90
17252;DHT22;8742;51.716;8.790;2023-02-11T07:08:45;5.90;99.90
17252;DHT22;8742;51.716;8.790;2023-02-11T07:11:14;5.90;99.90
17252;DHT22;8742;51.716;8.790;2023-02-11T07:13:42;5.90;99.90
17252;DHT22;8742;51.716;8.790;2023-02-11T07:16:11;5.90;99.90
17252;DHT22;8742;51.716;8.790;2023-02-11T07:18:39;5.80;99.90
17252;DHT22;8742;51.716;8.790;2023-02-11T07:21:07;5.80;99.90
17252;DHT22;8742;51.716;8.790;2023-02-11T07:23:35;5.80;99.90
17252;DHT22;8742;51.716;8.790;2023-02-11T07:26:03;5.80;99.90
17252;DHT22;8742;51.716;8.790;2023-02-11T07:28:30;5.80;99.90
17252;DHT22;8742;51.716;8.790;2023-02-11T07:30:58;5.90;99.90
17252;DHT22;8742;51.716;8.790;2023-02-11T07:33:25;5.80;99.90
17252;DHT22;8742;51.716;8.790;2023-02-11T07:35:52;5.90;99.90
17252;DHT22;8742;51.716;8.790;2023-02-11T07:38:18;5.90;99.90
17252;DHT22;8742;51.716;8.790;2023-02-11T07:40:45;5.90;99.90
17252;DHT22;8742;51.716;8.790;2023-02-11T07:43:12;5.90;99.90
17252;DHT22;8742;51.716;8.790;2023-02-11T07:45:39;5.90;99.90
17252;DHT22;8742;51.716;8.790;2023-02-11T07:48:07;5.90;99.90
17252;DHT22;8742;51.716;8.790;2023-02-11T07:50:34;5.90;99.90
17252;DHT22;8742;51.716;8.790;2023-02-11T07:53:01;6.00;99.90
17252;DHT22;8742;51.716;8.790;2023-02-11T07:55:28;6.00;99.90
17252;DHT22;8742;51.716;8.790;2023-02-11T07:57:55;6.00;99.90
17252;DHT22;8742;51.716;8.790;2023-02-11T08:00:22;6.00;99.90
17252;DHT22;8742;51.716;8.790;2023-02-11T08:02:49;6.00;99.90
17252;DHT22;8742;51.716;8.790;2023-02-11T08:05:17;6.00;99.90
17252;DHT22;8742;51.716;8.790;2023-02-11T08:07:44;6.00;99.90
17252;DHT22;8742;51.716;8.790;2023-02-11T08:10:10;6.00;99.90
17252;DHT22;8742;51.716;8.790;2023-02-11T08:12:37;6.10;99.90
17252;DHT22;8742;51.716;8.790;2023-02-11T08:15:04;6.10;99.90
17252;DHT22;8742;51.716;8.790;2023-02-11T08:17:31;6.10;99.90
17252;DHT22;8742;51.716;8.790;2023-02-11T08:20:00;6.10;99.90
17252;DHT22;8742;51.716;8.790;2023-02-11T08:22:30;6.10;99.90
17252;DHT22;8742;51.716;8.790;2023-02-11T08:24:56;6.10;99.90
17252;DHT22;8742;51.716;8.790;2023-02-11T08:27:24;6.10;99.90
17252;DHT22;8742;51.716;8.790;2023-02-11T08:29:51;6.20;99.90
17252;DHT22;8742;51.716;8.790;2023-02-11T08:32:18;6.20;99.90
17252;DHT22;8742;51.716;8.790;2023-02-11T08:34:45;6.20;99.90
17252;DHT22;8742;51.716;8.790;2023-02-11T08:37:12;6.20;99.90
17252;DHT22;8742;51.716;8.790;2023-02-11T08:39:40;6.20;99.90
17252;DHT22;8742;51.716;8.790;2023-02-11T08:42:06;6.30;99.90
17252;DHT22;8742;51.716;8.790;2023-02-11T08:44:33;6.30;99.90
17252;DHT22;8742;51.716;8.790;2023-02-11T08:47:00;6.30;99.90
17252;DHT22;8742;51.716;8.790;2023-02-11T08:49:27;6.30;99.90
17252;DHT22;8742;51.716;8.790;2023-02-11T08:51:55;6.30;99.90
17252;DHT22;8742;51.716;8.790;2023-02-11T08:54:26;6.30;99.90
17252;DHT22;8742;51.716;8.790;2023-02-11T08:56:55;6.40;99.90
17252;DHT22;8742;51.716;8.790;2023-02-11T08:59:22;6.40;99.90
17252;DHT22;8742;51.716;8.790;2023-02-11T09:01:49;6.40;99.90
17252;DHT22;8742;51.716;8.790;2023-02-11T09:04:16;6.40;99.90
17252;DHT22;8742;51.716;8.790;2023-02-11T09:06:43;6.40;99.90
17252;DHT22;8742;51.716;8.790;2023-02-11T09:09:11;6.40;99.90
17252;DHT22;8742;51.716;8.790;2023-02-11T09:11:39;6.40;99.90
17252;DHT22;8742;51.716;8.790;2023-02-11T09:14:16;6.40;99.90
17252;DHT22;8742;51.716;8.790;2023-02-11T09:16:43;6.40;99.90
17252;DHT22;8742;51.716;8.790;2023-02-11T09:19:10;6.40;99.90
17252;DHT22;8742;51.716;8.790;2023-02-11T09:21:37;6.40;99.90
17252;DHT22;8742;51.716;8.790;2023-02-11T09:24:04;6.40;99.90
17252;DHT22;8742;51.716;8.790;2023-02-11T09:26:33;6.50;99.90
17252;DHT22;8742;51.716;8.790;2023-02-11T09:29:00;6.50;99.90
17252;DHT22;8742;51.716;8.790;2023-02-11T09:31:30;6.50;99.90
17252;DHT22;8742;51.716;8.790;2023-02-11T09:33:58;6.60;99.90
17252;DHT22;8742;51.716;8.790;2023-02-11T09:36:26;6.60;99.90
17252;DHT22;8742;51.716;8.790;2023-02-11T09:38:55;6.60;99.90
17252;DHT22;8742;51.716;8.790;2023-02-11T09:41:45;6.60;99.90
17252;DHT22;8742;51.716;8.790;2023-02-11T09:44:19;6.70;99.90
17252;DHT22;8742;51.716;8.790;2023-02-11T09:46:53;6.70;99.90
17252;DHT22;8742;51.716;8.790;2023-02-11T09:49:23;6.70;99.90
17252;DHT22;8742;51.716;8.790;2023-02-11T09:51:55;6.70;99.90
17252;DHT22;8742;51.716;8.790;2023-02-11T09:54:27;6.80;99.90
17252;DHT22;8742;51.716;8.790;2023-02-11T09:56:55;6.80;99.90
17252;DHT22;8742;51.716;8.790;2023-02-11T09:59:22;6.80;99.90
17252;DHT22;8742;51.716;8.790;2023-02-11T10:01:56;6.80;99.90
17252;DHT22;8742;51.716;8.790;2023-02-11T10:04:48;6.80;99.90
17252;DHT22;8742;51.716;8.790;2023-02-11T10:07:31;6.90;99.90
17252;DHT22;8742;51.716;8.790;2023-02-11T10:10:09;6.90;99.90
17252;DHT22;8742;51.716;8.790;2023-02-11T10:12:51;6.90;99.90
17252;DHT22;8742;51.716;8.790;2023-02-11T10:15:26;6.90;99.90
17252;DHT22;8742;51.716;8.790;2023-02-11T10:18:14;6.90;99.90
17252;DHT22;8742;51.716;8.790;2023-02-11T10:20:48;6.90;99.90
17252;DHT22;8742;51.716;8.790;2023-02-11T10:23:26;7.00;99.90
17252;DHT22;8742;51.716;8.790;2023-02-11T10:25:56;7.00;99.90
17252;DHT22;8742;51.716;8.790;2023-02-11T10:28:29;7.00;99.90
17252;DHT22;8742;51.716;8.790;2023-02-11T10:30:58;7.00;99.90
17252;DHT22;8742;51.716;8.790;2023-02-11T10:33:30;7.00;99.90
17252;DHT22;8742;51.716;8.790;2023-02-11T10:35:57;7.00;99.90
17252;DHT22;8742;51.716;8.790;2023-02-11T10:38:25;7.10;99.90
17252;DHT22;8742;51.716;8.790;2023-02-11T10:40:53;7.10;99.90
17252;DHT22;8742;51.716;8.790;2023-02-11T10:43:23;7.10;99.90
17252;DHT22;8742;51.716;8.790;2023-02-11T10:45:52;7.10;99.90
17252;DHT22;8742;51.716;8.790;2023-02-11T10:48:38;7.10;99.90
17252;DHT22;8742;51.716;8.790;2023-02-11T10:51:11;7.10;99.90
17252;DHT22;8742;51.716;8.790;2023-02-11T10:53:39;7.10;99.90
17252;DHT22;8742;51.716;8.790;2023-02-11T10:56:07;7.10;99.90
17252;DHT22;8742;51.716;8.790;2023-02-11T10:58:40;7.10;99.90
17252;DHT22;8742;51.716;8.790;2023-02-11T11:01:10;7.20;99.90
17252;DHT22;8742;51.716;8.790;2023-02-11T11:03:45;7.20;99.90
17252;DHT22;8742;51.716;8.790;2023-02-11T11:06:12;7.20;99.90
17252;DHT22;8742;51.716;8.790;2023-02-11T11:08:44;7.20;99.90
17252;DHT22;8742;51.716;8.790;2023-02-11T11:11:12;7.20;99.90
17252;DHT22;8742;51.716;8.790;2023-02-11T11:13:41;7.20;99.90
17252;DHT22;8742;51.716;8.790;2023-02-11T11:16:23;7.20;99.90
17252;DHT22;8742;51.716;8.790;2023-02-11T11:18:52;7.20;99.90
17252;DHT22;8742;51.716;8.790;2023-02-11T11:21:22;7.20;99.90
17252;DHT22;8742;51.716;8.790;2023-02-11T11:23:53;7.20;99.90
17252;DHT22;8742;51.716;8.790;2023-02-11T11:26:21;7.20;99.90
17252;DHT22;8742;51.716;8.790;2023-02-11T11:28:55;7.20;99.90
17252;DHT22;8742;51.716;8.790;2023-02-11T11:31:24;7.20;99.90
17252;DHT22;8742;51.716;8.790;2023-02-11T11:33:55;7.20;99.90
17252;DHT22;8742;51.716;8.790;2023-02-11T11:36:31;7.20;99.90
17252;DHT22;8742;51.716;8.790;2023-02-11T11:39:02;7.20;99.90
17252;DHT22;8742;51.716;8.790;2023-02-11T11:41:32;7.20;99.90
17252;DHT22;8742;51.716;8.790;2023-02-11T11:44:02;7.20;99.90
17252;DHT22;8742;51.716;8.790;2023-02-11T11:46:33;7.20;99.90
17252;DHT22;8742;51.716;8.790;2023-02-11T11:49:08;7.20;99.90
17252;DHT22;8742;51.716;8.790;2023-02-11T11:51:40;7.20;99.90
17252;DHT22;8742;51.716;8.790;2023-02-11T11:54:10;7.20;99.90
17252;DHT22;8742;51.716;8.790;2023-02-11T11:56:44;7.20;99.90
17252;DHT22;8742;51.716;8.790;2023-02-11T11:59:12;7.20;99.90
17252;DHT22;8742;51.716;8.790;2023-02-11T12:01:50;7.20;99.90
17252;DHT22;8742;51.716;8.790;2023-02-11T12:04:52;7.10;99.90
17252;DHT22;8742;51.716;8.790;2023-02-11T12:07:30;7.10;99.90
17252;DHT22;8742;51.716;8.790;2023-02-11T12:13:09;7.10;99.90
17252;DHT22;8742;51.716;8.790;2023-02-11T12:15:42;7.10;99.90
17252;DHT22;8742;51.716;8.790;2023-02-11T12:18:29;7.10;99.90
17252;DHT22;8742;51.716;8.790;2023-02-11T12:21:17;7.10;99.90
17252;DHT22;8742;51.716;8.790;2023-02-11T12:24:01;7.20;99.90
17252;DHT22;8742;51.716;8.790;2023-02-11T12:26:35;7.20;99.90
17252;DHT22;8742;51.716;8.790;2023-02-11T12:29:12;7.20;99.90
17252;DHT22;8742;51.716;8.790;2023-02-11T12:31:49;7.20;99.90
17252;DHT22;8742;51.716;8.790;2023-02-11T12:34:30;7.20;99.90
17252;DHT22;8742;51.716;8.790;2023-02-11T12:37:05;7.30;99.90
17252;DHT22;8742;51.716;8.790;2023-02-11T12:39:39;7.30;99.90
17252;DHT22;8742;51.716;8.790;2023-02-11T12:45:26;7.30;99.90
17252;DHT22;8742;51.716;8.790;2023-02-11T12:48:09;7.40;99.90
17252;DHT22;8742;51.716;8.790;2023-02-11T12:50:44;7.40;99.90
17252;DHT22;8742;51.716;8.790;2023-02-11T12:53:29;7.40;99.90
17252;DHT22;8742;51.716;8.790;2023-02-11T12:56:04;7.40;99.90
17252;DHT22;8742;51.716;8.790;2023-02-11T12:58:34;7.40;99.90
17252;DHT22;8742;51.716;8.790;2023-02-11T13:01:05;7.50;99.90
17252;DHT22;8742;51.716;8.790;2023-02-11T13:03:38;7.50;99.90
17252;DHT22;8742;51.716;8.790;2023-02-11T13:06:08;7.50;99.90
17252;DHT22;8742;51.716;8.790;2023-02-11T13:08:41;7.50;99.90
17252;DHT22;8742;51.716;8.790;2023-02-11T13:11:12;7.60;99.90
17252;DHT22;8742;51.716;8.790;2023-02-11T13:13:47;7.60;99.90
17252;DHT22;8742;51.716;8.790;2023-02-11T13:16:20;7.60;99.90
17252;DHT22;8742;51.716;8.790;2023-02-11T13:18:53;7.60;99.90
17252;DHT22;8742;51.716;8.790;2023-02-11T13:21:47;7.70;99.90
17252;DHT22;8742;51.716;8.790;2023-02-11T13:24:22;7.70;99.90
17252;DHT22;8742;51.716;8.790;2023-02-11T13:26:59;7.70;99.90
17252;DHT22;8742;51.716;8.790;2023-02-11T13:29:32;7.80;99.90
17252;DHT22;8742;51.716;8.790;2023-02-11T13:32:07;7.80;99.90
17252;DHT22;8742;51.716;8.790;2023-02-11T13:34:55;7.80;99.90
17252;DHT22;8742;51.716;8.790;2023-02-11T13:37:24;7.90;99.90
17252;DHT22;8742;51.716;8.790;2023-02-11T13:39:57;7.90;99.90
17252;DHT22;8742;51.716;8.790;2023-02-11T13:42:25;8.00;99.90
17252;DHT22;8742;51.716;8.790;2023-02-11T13:44:52;8.00;99.90
17252;DHT22;8742;51.716;8.790;2023-02-11T13:47:25;8.00;99.90
17252;DHT22;8742;51.716;8.790;2023-02-11T13:49:53;8.00;99.90
17252;DHT22;8742;51.716;8.790;2023-02-11T13:52:23;8.00;99.90
17252;DHT22;8742;51.716;8.790;2023-02-11T13:54:52;8.00;99.90
17252;DHT22;8742;51.716;8.790;2023-02-11T13:57:30;8.00;99.90
17252;DHT22;8742;51.716;8.790;2023-02-11T13:59:58;8.00;99.90
17252;DHT22;8742;51.716;8.790;2023-02-11T14:02:30;8.00;99.90
17252;DHT22;8742;51.716;8.790;2023-02-11T14:05:27;8.00;99.90
17252;DHT22;8742;51.716;8.790;2023-02-11T14:08:20;7.90;99.90
17252;DHT22;8742;51.716;8.790;2023-02-11T14:11:07;7.90;99.90
17252;DHT22;8742;51.716;8.790;2023-02-11T14:14:02;7.90;99.90
17252;DHT22;8742;51.716;8.790;2023-02-11T14:17:17;7.90;99.90
17252;DHT22;8742;51.716;8.790;2023-02-11T14:19:46;7.90;99.90
17252;DHT22;8742;51.716;8.790;2023-02-11T14:22:16;7.90;99.90
17252;DHT22;8742;51.716;8.790;2023-02-11T14:24:50;7.90;99.90
17252;DHT22;8742;51.716;8.790;2023-02-11T14:27:26;7.90;99.90
17252;DHT22;8742;51.716;8.790;2023-02-11T14:33:03;7.90;99.90
17252;DHT22;8742;51.716;8.790;2023-02-11T14:35:37;7.90;99.90
17252;DHT22;8742;51.716;8.790;2023-02-11T14:38:12;8.00;99.90
17252;DHT22;8742;51.716;8.790;2023-02-11T14:40:47;7.90;99.90
17252;DHT22;8742;51.716;8.790;2023-02-11T14:43:19;7.90;99.90
17252;DHT22;8742;51.716;8.790;2023-02-11T14:45:53;7.90;99.90
17252;DHT22;8742;51.716;8.790;2023-02-11T14:48:25;7.90;99.90
17252;DHT22;8742;51.716;8.790;2023-02-11T14:50:59;7.90;99.90
17252;DHT22;8742;51.716;8.790;2023-02-11T14:53:27;7.90;99.90
17252;DHT22;8742;51.716;8.790;2023-02-11T14:55:56;7.90;99.90
17252;DHT22;8742;51.716;8.790;2023-02-11T14:58:24;7.90;99.90
17252;DHT22;8742;51.716;8.790;2023-02-11T15:00:58;7.90;99.90
17252;DHT22;8742;51.716;8.790;2023-02-11T15:03:31;7.90;99.90
17252;DHT22;8742;51.716;8.790;2023-02-11T15:05:59;7.90;99.90
17252;DHT22;8742;51.716;8.790;2023-02-11T15:08:28;8.00;99.90
17252;DHT22;8742;51.716;8.790;2023-02-11T15:10:57;8.00;99.90
17252;DHT22;8742;51.716;8.790;2023-02-11T15:13:25;8.00;99.90
17252;DHT22;8742;51.716;8.790;2023-02-11T15:16:00;8.00;99.90
17252;DHT22;8742;51.716;8.790;2023-02-11T15:18:34;8.00;99.90
17252;DHT22;8742;51.716;8.790;2023-02-11T15:21:03;8.00;99.90
17252;DHT22;8742;51.716;8.790;2023-02-11T15:23:31;8.00;99.90
17252;DHT22;8742;51.716;8.790;2023-02-11T15:25:57;7.90;99.90
17252;DHT22;8742;51.716;8.790;2023-02-11T15:28:31;7.90;99.90
17252;DHT22;8742;51.716;8.790;2023-02-11T15:31:01;7.90;99.90
17252;DHT22;8742;51.716;8.790;2023-02-11T15:33:30;7.90;99.90
17252;DHT22;8742;51.716;8.790;2023-02-11T15:35:58;7.90;99.90
17252;DHT22;8742;51.716;8.790;2023-02-11T15:38:28;7.90;99.90
17252;DHT22;8742;51.716;8.790;2023-02-11T15:40:57;7.90;99.90
17252;DHT22;8742;51.716;8.790;2023-02-11T15:43:39;7.90;99.90
17252;DHT22;8742;51.716;8.790;2023-02-11T15:46:08;7.90;99.90
17252;DHT22;8742;51.716;8.790;2023-02-11T15:48:37;7.80;99.90
17252;DHT22;8742;51.716;8.790;2023-02-11T15:51:20;7.90;99.90
17252;DHT22;8742;51.716;8.790;2023-02-11T15:53:51;7.80;99.90
17252;DHT22;8742;51.716;8.790;2023-02-11T15:56:23;7.80;99.90
17252;DHT22;8742;51.716;8.790;2023-02-11T15:58:52;7.80;99.90
17252;DHT22;8742;51.716;8.790;2023-02-11T16:01:29;7.70;99.90
17252;DHT22;8742;51.716;8.790;2023-02-11T16:03:57;7.80;99.90
17252;DHT22;8742;51.716;8.790;2023-02-11T16:06:25;7.70;99.90
17252;DHT22;8742;51.716;8.790;2023-02-11T16:08:59;7.70;99.90
17252;DHT22;8742;51.716;8.790;2023-02-11T16:11:27;7.70;99.90
17252;DHT22;8742;51.716;8.790;2023-02-11T16:13:56;7.70;99.90
17252;DHT22;8742;51.716;8.790;2023-02-11T16:16:28;7.70;99.90
17252;DHT22;8742;51.716;8.790;2023-02-11T16:18:58;7.70;99.90
17252;DHT22;8742;51.716;8.790;2023-02-11T16:21:30;7.70;99.90
17252;DHT22;8742;51.716;8.790;2023-02-11T16:23:59;7.70;99.90
17252;DHT22;8742;51.716;8.790;2023-02-11T16:26:29;7.70;99.90
17252;DHT22;8742;51.716;8.790;2023-02-11T16:29:04;7.60;99.90
17252;DHT22;8742;51.716;8.790;2023-02-11T16:31:34;7.60;99.90
17252;DHT22;8742;51.716;8.790;2023-02-11T16:34:01;7.60;99.90
17252;DHT22;8742;51.716;8.790;2023-02-11T16:36:28;7.60;99.90
17252;DHT22;8742;51.716;8.790;2023-02-11T16:38:55;7.60;99.90
17252;DHT22;8742;51.716;8.790;2023-02-11T16:41:22;7.60;99.90